Time;durP1;ratioP1;P1;durP2;ratioP2;P2;SDS_P1;SDS_P2;PMS_P1;PMS_P2;Temp;Humidity;BMP_temperature;BMP_pressure;BME280_temperature;BME280_humidity;BME280_pressure;Samples;Min_cycle;Max_cycle;Signal;HPM_P1;HPM_P2
2022/01/28 00:00:25;;;;;;;23.52;12.65;;;;;;;-0.88;100.00;96078.41;5033272;28;20105;-67
2022/01/28 00:05:22;;;;;;;28.35;13.93;;;;;;;-0.88;100.00;96073.16;5028665;28;20029;-67
2022/01/28 00:07:52;;;;;;;26.15;14.07;;;;;;;-0.89;100.00;96074.13;5029438;28;20088;-67
2022/01/28 00:10:23;;;;;;;25.73;13.10;;;;;;;-0.90;100.00;96084.84;5025107;28;20488;-67
2022/01/28 00:39:50;;;;;;;28.27;14.30;;;;;;;-0.83;100.00;96067.41;5033833;28;20033;-67
2022/01/28 00:42:18;;;;;;;31.25;14.57;;;;;;;-0.82;100.00;96079.56;5028104;28;20033;-67
2022/01/28 00:44:51;;;;;;;31.40;15.38;;;;;;;-0.81;100.00;96083.81;5030522;28;20040;-67
2022/01/28 00:47:21;;;;;;;28.40;15.23;;;;;;;-0.84;100.00;96068.38;5030819;28;20396;-66
2022/01/28 00:49:47;;;;;;;29.33;14.70;;;;;;;-0.85;100.00;96072.00;5031939;28;20112;-67
2022/01/28 00:52:18;;;;;;;28.90;14.77;;;;;;;-0.83;100.00;96070.03;5019986;28;20497;-67
2022/01/28 00:54:46;;;;;;;34.83;15.43;;;;;;;-0.82;100.00;96076.94;5019995;28;20068;-67
2022/01/28 00:57:11;;;;;;;31.95;15.57;;;;;;;-0.81;100.00;96083.81;5032805;28;20516;-67
2022/01/28 00:59:39;;;;;;;32.22;15.38;;;;;;;-0.80;100.00;96074.94;5027232;28;20136;-67
2022/01/28 01:02:07;;;;;;;31.77;15.27;;;;;;;-0.82;100.00;96074.28;5032860;28;20025;-67
2022/01/28 01:04:33;;;;;;;30.88;15.80;;;;;;;-0.81;100.00;96078.56;5027640;28;20029;-67
2022/01/28 01:07:16;;;;;;;30.10;15.75;;;;;;;-0.81;100.00;96086.44;5023533;28;20037;-67
2022/01/28 01:09:45;;;;;;;29.02;15.13;;;;;;;-0.81;100.00;96077.75;5032965;28;20027;-67
2022/01/28 01:12:18;;;;;;;33.10;15.82;;;;;;;-0.81;100.00;96077.75;5034410;28;20040;-67
2022/01/28 01:14:51;;;;;;;35.50;16.45;;;;;;;-0.81;100.00;96067.22;5052783;28;20036;-67
2022/01/28 01:19:51;;;;;;;30.52;15.85;;;;;;;-0.79;100.00;96075.75;5033136;28;20060;-67
2022/01/28 01:22:19;;;;;;;33.65;16.23;;;;;;;-0.79;100.00;96084.47;5012037;28;20084;-66
2022/01/28 01:24:53;;;;;;;34.97;16.15;;;;;;;-0.78;100.00;96090.56;5030709;28;20165;-67
2022/01/28 01:27:20;;;;;;;30.02;15.88;;;;;;;-0.80;100.00;96088.09;5032412;28;20026;-67
2022/01/28 01:29:46;;;;;;;32.33;15.75;;;;;;;-0.78;100.00;96103.69;5032318;28;20025;-67
2022/01/28 01:32:15;;;;;;;30.52;15.95;;;;;;;-0.79;100.00;96108.16;5052343;28;20086;-67
2022/01/28 01:34:41;;;;;;;34.03;16.33;;;;;;;-0.77;100.00;96121.13;5045874;28;20047;-67
2022/01/28 01:37:13;;;;;;;33.15;16.63;;;;;;;-0.76;100.00;96109.59;5027569;28;20480;-67
2022/01/28 01:39:40;;;;;;;33.80;15.88;;;;;;;-0.76;100.00;96117.50;5026268;28;20398;-67
2022/01/28 01:53:44;;;;;;;33.65;16.60;;;;;;;-0.74;100.00;96111.09;5016132;28;20443;-66
2022/01/28 01:59:42;;;;;;;36.15;15.32;;;;;;;-0.76;100.00;96112.25;4410983;28;20041;-66
2022/01/28 02:02:09;;;;;;;35.40;16.88;;;;;;;-0.75;100.00;96117.34;5013881;28;20040;-66
2022/01/28 02:04:42;;;;;;;36.10;16.42;;;;;;;-0.74;100.00;96126.06;5032133;28;20033;-66
2022/01/28 02:07:16;;;;;;;35.30;16.13;;;;;;;-0.76;100.00;96126.25;5032593;28;20421;-66
2022/01/28 02:09:42;;;;;;;36.53;16.83;;;;;;;-0.75;100.00;96125.25;5031668;28;20112;-66
2022/01/28 02:12:09;;;;;;;37.42;16.98;;;;;;;-0.75;100.00;96113.91;5017784;28;20047;-66
2022/01/28 02:14:37;;;;;;;36.67;16.02;;;;;;;-0.75;100.00;96106.84;5031259;28;20439;-65
2022/01/28 02:17:09;;;;;;;32.17;16.23;;;;;;;-0.75;100.00;96106.84;5030302;28;20112;-66
2022/01/28 02:19:39;;;;;;;40.05;16.45;;;;;;;-0.75;100.00;96119.16;5032660;28;20403;-66
2022/01/28 02:22:06;;;;;;;36.00;16.50;;;;;;;-0.75;100.00;96124.44;5032673;28;20097;-65
2022/01/28 02:24:42;;;;;;;30.42;15.70;;;;;;;-0.75;100.00;96130.50;5024839;28;20047;-65
2022/01/28 02:27:09;;;;;;;34.85;15.38;;;;;;;-0.75;100.00;96135.78;5032384;28;20033;-66
2022/01/28 02:29:35;;;;;;;31.20;15.40;;;;;;;-0.74;100.00;96140.03;5031028;28;20037;-66
2022/01/28 02:32:08;;;;;;;28.73;15.18;;;;;;;-0.74;100.00;96142.66;5019298;28;20025;-66
2022/01/28 02:34:38;;;;;;;36.83;15.88;;;;;;;-0.74;100.00;96136.59;5031574;28;20030;-66
2022/01/28 02:37:04;;;;;;;31.45;14.32;;;;;;;-0.73;100.00;96146.13;5032364;28;20034;-66
2022/01/28 02:39:33;;;;;;;33.83;15.02;;;;;;;-0.74;100.00;96144.47;5032080;28;20388;-66
2022/01/28 02:42:06;;;;;;;29.92;14.65;;;;;;;-0.75;100.00;96141.03;5031604;28;20022;-66
2022/01/28 02:47:11;;;;;;;32.33;15.20;;;;;;;-0.74;100.00;96144.47;5023070;28;20064;-66
2022/01/28 02:49:39;;;;;;;31.48;14.70;;;;;;;-0.73;100.00;96138.22;5030867;28;20074;-66
2022/01/28 02:52:08;;;;;;;30.77;14.43;;;;;;;-0.75;100.00;96133.13;5030644;28;20025;-66
2022/01/28 02:54:44;;;;;;;29.42;13.77;;;;;;;-0.77;100.00;96137.72;5014086;28;20038;-66
2022/01/28 02:57:09;;;;;;;29.65;13.82;;;;;;;-0.76;100.00;96131.50;5032001;28;20346;-66
2022/01/28 02:59:34;;;;;;;30.50;13.52;;;;;;;-0.76;100.00;96141.19;5031127;28;20022;-66
2022/01/28 03:02:00;;;;;;;28.50;13.07;;;;;;;-0.76;100.00;96135.91;5025555;28;20041;-66
2022/01/28 03:06:50;;;;;;;31.63;14.63;;;;;;;-0.77;100.00;96137.72;5026181;28;20025;-66
2022/01/28 03:09:20;;;;;;;26.85;12.90;;;;;;;-144.43;100.00;64487.81;5031031;28;20036;-66
2022/01/28 03:12:12;;;;;;;28.00;13.48;;;;;;;-144.43;100.00;64487.81;5018104;28;20022;-66
2022/01/28 03:14:58;;;;;;;32.72;13.68;;;;;;;-144.43;100.00;64487.81;5033526;28;20112;-66
2022/01/28 03:20:31;;;;;;;28.63;13.40;;;;;;;-144.43;100.00;64487.81;5036261;28;20032;-66
2022/01/28 03:22:51;;;;;;;28.55;13.52;;;;;;;-144.43;100.00;64487.81;5034347;28;20025;-66
2022/01/28 03:25:16;;;;;;;31.05;13.57;;;;;;;-144.43;100.00;64487.81;5018067;28;20036;-66
2022/01/28 03:27:54;;;;;;;26.63;12.77;;;;;;;-144.43;100.00;64487.81;5034785;28;20021;-66
2022/01/28 03:30:22;;;;;;;24.80;11.80;;;;;;;-144.43;100.00;64487.81;5029558;28;20489;-66
2022/01/28 03:32:51;;;;;;;27.52;13.43;;;;;;;-144.43;100.00;64487.81;5029016;28;20025;-66
2022/01/28 03:35:18;;;;;;;30.48;13.68;;;;;;;-144.43;100.00;64487.81;5034801;28;20388;-66
2022/01/28 03:37:43;;;;;;;24.38;11.65;;;;;;;-144.43;100.00;64487.81;5035497;28;20369;-66
2022/01/28 03:40:10;;;;;;;26.92;12.68;;;;;;;-144.43;100.00;64487.81;5034111;28;20048;-66
2022/01/28 03:42:39;;;;;;;23.75;12.38;;;;;;;-144.43;100.00;64487.81;5035482;28;20036;-66
2022/01/28 03:45:08;;;;;;;27.85;13.50;;;;;;;-144.43;100.00;64487.81;5034332;28;20135;-66
2022/01/28 03:47:35;;;;;;;29.20;13.35;;;;;;;-144.43;100.00;64487.81;5034782;28;20049;-66
2022/01/28 03:50:01;;;;;;;26.42;12.48;;;;;;;-144.43;100.00;64487.81;5035423;28;20027;-66
2022/01/28 03:52:31;;;;;;;25.27;12.82;;;;;;;-144.43;100.00;64487.81;5034124;28;20029;-66
2022/01/28 03:54:56;;;;;;;29.17;14.02;;;;;;;-144.43;100.00;64487.81;5034695;28;20376;-66
2022/01/28 03:57:25;;;;;;;30.42;13.80;;;;;;;-144.43;100.00;64487.81;5035225;28;20033;-66
2022/01/28 03:59:50;;;;;;;25.80;13.70;;;;;;;-144.43;100.00;64487.81;5032697;28;20067;-66
2022/01/28 04:02:22;;;;;;;26.92;12.95;;;;;;;-144.43;100.00;64487.81;5030065;28;20053;-66
2022/01/28 04:12:58;;;;;;;22.83;11.95;;;;;;;-144.43;100.00;64487.81;5025200;28;20032;-66
2022/01/28 04:15:49;;;;;;;25.52;12.15;;;;;;;-144.43;100.00;64487.81;5034791;28;20037;-66
2022/01/28 04:18:14;;;;;;;23.45;11.98;;;;;;;-144.43;100.00;64487.81;5031225;28;20480;-66
2022/01/28 04:20:40;;;;;;;25.80;11.80;;;;;;;-144.43;100.00;64487.81;5034963;28;20037;-66
2022/01/28 04:23:05;;;;;;;21.50;11.55;;;;;;;-144.43;100.00;64487.81;5033907;28;20387;-66
2022/01/28 04:25:30;;;;;;;25.35;11.93;;;;;;;-144.43;100.00;64487.81;5012995;28;20018;-66
2022/01/28 04:27:58;;;;;;;22.33;10.80;;;;;;;-144.43;100.00;64487.81;5027923;28;20025;-66
2022/01/28 04:30:24;;;;;;;20.77;11.40;;;;;;;-144.43;100.00;64487.81;5033945;28;20185;-66
2022/01/28 04:32:51;;;;;;;20.98;10.60;;;;;;;-144.43;100.00;64487.81;5013947;28;20535;-66
2022/01/28 04:35:19;;;;;;;19.27;10.13;;;;;;;-144.43;100.00;64487.81;5028814;28;20026;-66
2022/01/28 04:38:17;;;;;;;18.52;9.52;;;;;;;-144.43;100.00;64487.81;5027647;28;20025;-66
2022/01/28 04:40:40;;;;;;;18.83;9.30;;;;;;;-144.43;100.00;64487.81;5030195;28;20120;-66
2022/01/28 04:43:14;;;;;;;17.30;8.98;;;;;;;-144.43;100.00;64487.81;5032623;28;20013;-66
2022/01/28 04:48:47;;;;;;;14.45;8.13;;;;;;;-144.43;100.00;64487.81;5026701;28;20033;-66
2022/01/28 04:51:31;;;;;;;16.88;7.53;;;;;;;-144.43;100.00;64487.81;5027335;28;20037;-66
2022/01/28 05:04:42;;;;;;;11.80;6.18;;;;;;;-144.43;100.00;64487.81;5048641;28;20486;-65
2022/01/28 05:07:28;;;;;;;15.15;7.00;;;;;;;-144.43;100.00;64487.81;5054201;28;20037;-66
2022/01/28 05:15:20;;;;;;;14.43;7.47;;;;;;;-144.43;100.00;64487.81;5032943;28;20124;-65
2022/01/28 05:23:28;;;;;;;12.98;7.03;;;;;;;-144.43;100.00;64487.81;5052351;28;20155;-65
2022/01/28 05:28:41;;;;;;;14.18;8.23;;;;;;;-144.43;100.00;64487.81;5053006;28;20029;-65
2022/01/28 05:31:12;;;;;;;18.15;9.68;;;;;;;-144.43;100.00;64487.81;5053479;28;20031;-65
2022/01/28 05:33:47;;;;;;;16.42;8.73;;;;;;;-144.43;100.00;64487.81;5053516;28;20365;-65
2022/01/28 05:36:13;;;;;;;15.07;8.15;;;;;;;-144.43;100.00;64487.81;5049217;28;20020;-65
2022/01/28 05:38:41;;;;;;;18.33;9.40;;;;;;;-144.43;100.00;64487.81;5073181;28;20025;-65
2022/01/28 05:41:10;;;;;;;20.98;10.38;;;;;;;-144.43;100.00;64487.81;5050519;28;20028;-65
2022/01/28 05:43:40;;;;;;;17.25;9.73;;;;;;;-144.43;100.00;64487.81;5053064;28;20033;-65
2022/01/28 05:46:08;;;;;;;21.65;10.68;;;;;;;-144.43;100.00;64487.81;5053097;28;20074;-65
2022/01/28 05:48:34;;;;;;;17.65;9.77;;;;;;;-144.43;100.00;64487.81;5044593;28;20024;-65
2022/01/28 05:50:59;;;;;;;22.85;11.25;;;;;;;-144.43;100.00;64487.81;5072881;28;20029;-65
2022/01/28 05:53:28;;;;;;;16.65;9.38;;;;;;;-144.43;100.00;64487.81;5062370;28;20033;-65
2022/01/28 05:55:56;;;;;;;17.88;8.80;;;;;;;-144.43;100.00;64487.81;5031806;28;20057;-65
2022/01/28 05:58:22;;;;;;;16.63;9.63;;;;;;;-144.43;100.00;64487.81;5043540;28;20104;-66
2022/01/28 06:00:51;;;;;;;16.23;9.07;;;;;;;-144.43;100.00;64487.81;5052605;28;20507;-66
2022/01/28 06:03:19;;;;;;;19.00;9.40;;;;;;;-144.43;100.00;64487.81;5031376;28;20026;-66
2022/01/28 06:05:52;;;;;;;19.23;10.05;;;;;;;-144.43;100.00;64487.81;5041787;28;20112;-67
2022/01/28 06:08:17;;;;;;;20.35;10.30;;;;;;;-144.43;100.00;64487.81;5015098;28;20041;-66
2022/01/28 06:10:49;;;;;;;18.88;9.75;;;;;;;-144.43;100.00;64487.81;5033445;28;20037;-66
2022/01/28 06:13:14;;;;;;;22.20;11.13;;;;;;;-144.43;100.00;64487.81;5052568;28;20037;-67
2022/01/28 06:15:41;;;;;;;21.52;10.77;;;;;;;-144.43;100.00;64487.81;5052668;28;20025;-67
2022/01/28 06:18:08;;;;;;;17.80;10.25;;;;;;;-144.43;100.00;64487.81;5051310;28;20021;-67
2022/01/28 06:20:39;;;;;;;24.08;10.30;;;;;;;-144.43;100.00;64487.81;5052544;28;20039;-67
2022/01/28 06:23:06;;;;;;;19.67;10.50;;;;;;;-144.43;100.00;64487.81;5026976;28;20031;-67
2022/01/28 06:25:32;;;;;;;20.73;11.35;;;;;;;-144.43;100.00;64487.81;5052445;28;20059;-67
2022/01/28 06:27:57;;;;;;;22.10;10.65;;;;;;;-144.43;100.00;64487.81;5052669;28;20056;-67
2022/01/28 06:30:22;;;;;;;22.92;11.40;;;;;;;-144.43;100.00;64487.81;5018780;28;20018;-66
2022/01/28 06:32:49;;;;;;;20.35;10.55;;;;;;;-144.43;100.00;64487.81;5037856;28;20033;-66
2022/01/28 06:35:14;;;;;;;19.45;9.68;;;;;;;-144.43;100.00;64487.81;5044722;28;20579;-66
2022/01/28 06:37:44;;;;;;;19.17;10.40;;;;;;;-144.43;100.00;64487.81;5052604;28;20111;-66
2022/01/28 06:40:16;;;;;;;18.02;10.10;;;;;;;-144.43;100.00;64487.81;5070659;28;20028;-66
2022/01/28 06:42:44;;;;;;;19.90;10.32;;;;;;;-144.43;100.00;64487.81;5046061;28;20029;-66
2022/01/28 06:45:10;;;;;;;21.33;11.38;;;;;;;-144.43;100.00;64487.81;4959391;28;20208;-66
2022/01/28 06:47:35;;;;;;;24.85;12.10;;;;;;;-144.43;100.00;64487.81;5046782;28;20201;-67
2022/01/28 06:50:05;;;;;;;23.63;11.40;;;;;;;-144.43;100.00;64487.81;5052682;28;20048;-66
2022/01/28 06:52:31;;;;;;;20.83;11.80;;;;;;;-144.43;100.00;64487.81;5026987;28;21452;-66
2022/01/28 06:55:01;;;;;;;22.52;11.00;;;;;;;-144.43;100.00;64487.81;5052381;28;20020;-66
2022/01/28 06:57:27;;;;;;;20.30;11.13;;;;;;;-144.43;100.00;64487.81;5067482;28;20025;-66
2022/01/28 06:59:52;;;;;;;22.23;12.10;;;;;;;-144.43;100.00;64487.81;5049898;28;20020;-67
2022/01/28 07:02:20;;;;;;;21.05;11.75;;;;;;;-144.43;100.00;64487.81;5017632;28;20101;-67
2022/01/28 07:04:45;;;;;;;23.95;12.32;;;;;;;-144.43;100.00;64487.81;5028042;28;20029;-66
2022/01/28 07:07:14;;;;;;;20.42;11.30;;;;;;;-144.43;100.00;64487.81;5030689;28;20411;-66
2022/01/28 07:09:39;;;;;;;24.30;11.68;;;;;;;-144.43;100.00;64487.81;5034992;28;20476;-67
2022/01/28 07:12:06;;;;;;;21.85;11.48;;;;;;;-144.43;100.00;64487.81;5037447;28;20040;-66
2022/01/28 07:14:33;;;;;;;23.90;11.85;;;;;;;-144.43;100.00;64487.81;5034803;28;20429;-67
2022/01/28 07:16:59;;;;;;;28.90;10.80;;;;;;;-144.43;100.00;64487.81;5028124;28;20018;-66
2022/01/28 07:19:24;;;;;;;18.73;10.88;;;;;;;-144.43;100.00;64487.81;5021687;28;20540;-67
2022/01/28 07:21:52;;;;;;;25.60;12.35;;;;;;;-144.43;100.00;64487.81;5038806;28;20033;-67
2022/01/28 07:24:17;;;;;;;19.88;11.18;;;;;;;-144.43;100.00;64487.81;5031658;28;20039;-67
2022/01/28 07:26:43;;;;;;;21.25;11.65;;;;;;;-144.43;100.00;64487.81;5010066;28;20025;-67
2022/01/28 07:29:13;;;;;;;24.13;12.00;;;;;;;-144.43;100.00;64487.81;5026519;28;20471;-65
2022/01/28 07:31:38;;;;;;;18.67;10.32;;;;;;;-144.43;100.00;64487.81;5017790;28;20401;-67
2022/01/28 07:34:06;;;;;;;19.77;10.70;;;;;;;-144.43;100.00;64487.81;5012215;28;20029;-67
2022/01/28 07:36:33;;;;;;;19.88;10.90;;;;;;;-144.43;100.00;64487.81;5026939;28;20408;-66
2022/01/28 07:39:02;;;;;;;19.20;10.75;;;;;;;-144.43;100.00;64487.81;5011274;28;20029;-66
2022/01/28 07:41:28;;;;;;;20.80;11.55;;;;;;;-144.43;100.00;64487.81;5013224;28;20025;-65
2022/01/28 07:43:53;;;;;;;21.10;11.70;;;;;;;-144.43;100.00;64487.81;5037266;28;20377;-67
2022/01/28 07:46:21;;;;;;;19.58;11.70;;;;;;;-144.43;100.00;64487.81;5016672;28;20067;-67
2022/01/28 07:48:48;;;;;;;20.98;11.02;;;;;;;-144.43;100.00;64487.81;5034642;28;20018;-67
2022/01/28 07:51:14;;;;;;;20.75;10.27;;;;;;;-144.43;100.00;64487.81;5031685;28;20501;-66
2022/01/28 07:53:39;;;;;;;24.42;11.15;;;;;;;-144.43;100.00;64487.81;5001759;28;20034;-67
2022/01/28 07:56:07;;;;;;;20.35;10.98;;;;;;;-144.43;100.00;64487.81;5025737;28;20026;-65
2022/01/28 07:58:32;;;;;;;21.50;11.48;;;;;;;-144.43;100.00;64487.81;5030835;28;20030;-66
2022/01/28 08:00:59;;;;;;;18.80;11.15;;;;;;;-144.43;100.00;64487.81;5044461;28;20518;-67
2022/01/28 08:03:27;;;;;;;21.25;11.52;;;;;;;-144.43;100.00;64487.81;5075192;28;20024;-66
2022/01/28 08:05:55;;;;;;;17.88;10.00;;;;;;;-144.43;100.00;64487.81;5057362;28;20024;-67
2022/01/28 08:08:21;;;;;;;27.70;11.23;;;;;;;-144.43;100.00;64487.81;5074982;28;20471;-67
2022/01/28 08:10:47;;;;;;;20.90;10.57;;;;;;;-144.43;100.00;64487.81;5070021;28;20029;-67
2022/01/28 08:13:15;;;;;;;17.80;10.07;;;;;;;-144.43;100.00;64487.81;5049258;28;20024;-68
2022/01/28 08:15:41;;;;;;;18.15;10.50;;;;;;;-144.43;100.00;64487.81;5074992;28;20051;-68
2022/01/28 08:18:09;;;;;;;19.67;10.85;;;;;;;-144.43;100.00;64487.81;5066772;28;20020;-67
2022/01/28 08:20:35;;;;;;;19.25;10.95;;;;;;;-144.43;100.00;64487.81;5074818;28;20035;-67
2022/01/28 08:23:02;;;;;;;20.40;11.65;;;;;;;-144.43;100.00;64487.81;5067534;28;20025;-67
2022/01/28 08:25:31;;;;;;;19.58;11.23;;;;;;;-144.43;100.00;64487.81;5056210;28;20078;-66
2022/01/28 08:27:57;;;;;;;18.65;10.27;;;;;;;-144.43;100.00;64487.81;5056552;28;20111;-66
2022/01/28 08:30:25;;;;;;;19.63;10.40;;;;;;;-144.43;100.00;64487.81;5062808;28;20439;-65
2022/01/28 08:32:52;;;;;;;20.13;10.50;;;;;;;-144.43;100.00;64487.81;5034410;28;20028;-67
2022/01/28 08:35:25;;;;;;;18.25;9.75;;;;;;;-144.43;100.00;64487.81;5041058;28;20031;-67
2022/01/28 08:37:50;;;;;;;19.58;9.57;;;;;;;-144.43;100.00;64487.81;5055046;28;20034;-66
2022/01/28 08:40:17;;;;;;;20.52;10.40;;;;;;;-144.43;100.00;64487.81;5056362;28;20040;-64
2022/01/28 08:42:42;;;;;;;18.23;9.60;;;;;;;-144.43;100.00;64487.81;5054935;28;20112;-67
2022/01/28 08:45:08;;;;;;;17.77;9.82;;;;;;;-144.43;100.00;64487.81;5023765;28;20481;-67
2022/01/28 08:47:36;;;;;;;20.60;10.77;;;;;;;-144.43;100.00;64487.81;5053716;28;20041;-67
2022/01/28 08:50:03;;;;;;;20.60;10.63;;;;;;;-144.43;100.00;64487.81;5039975;28;20036;-66
2022/01/28 08:52:30;;;;;;;20.92;10.75;;;;;;;-144.43;100.00;64487.81;5034701;28;20388;-67
2022/01/28 08:54:55;;;;;;;21.63;9.93;;;;;;;-144.43;100.00;64487.81;5056707;28;20454;-66
2022/01/28 08:57:21;;;;;;;23.38;11.30;;;;;;;-144.43;100.00;64487.81;5040073;28;20108;-66
2022/01/28 08:59:46;;;;;;;19.58;10.10;;;;;;;-144.43;100.00;64487.81;5053193;28;20464;-69
2022/01/28 09:02:12;;;;;;;21.80;10.32;;;;;;;-144.43;100.00;64487.81;5034081;28;20097;-67
2022/01/28 09:04:37;;;;;;;18.13;10.65;;;;;;;-144.43;100.00;64487.81;5024254;28;20080;-66
2022/01/28 09:07:03;;;;;;;19.63;11.45;;;;;;;-144.43;100.00;64487.81;5021299;28;20025;-66
2022/01/28 09:09:31;;;;;;;19.15;9.65;;;;;;;-144.43;100.00;64487.81;5023180;28;20099;-66
2022/01/28 09:14:27;;;;;;;14.93;9.40;;;;;;;-144.43;100.00;64487.81;5044625;28;20029;-67
2022/01/28 09:16:56;;;;;;;15.00;8.82;;;;;;;-144.43;100.00;64487.81;5031785;28;20021;-66
2022/01/28 09:19:21;;;;;;;17.45;9.43;;;;;;;-144.43;100.00;64487.81;5021140;28;20078;-65
2022/01/28 09:21:47;;;;;;;14.20;8.65;;;;;;;-144.43;100.00;64487.81;5037094;28;20484;-66
2022/01/28 09:24:12;;;;;;;16.40;9.00;;;;;;;-144.43;100.00;64487.81;5011041;28;20041;-68
2022/01/28 09:26:38;;;;;;;17.23;9.88;;;;;;;-144.43;100.00;64487.81;5029717;28;20025;-67
2022/01/28 09:29:03;;;;;;;19.25;9.85;;;;;;;-144.43;100.00;64487.81;5021518;28;20502;-67
2022/01/28 09:31:29;;;;;;;15.95;9.02;;;;;;;-144.43;100.00;64487.81;5037366;28;20392;-67
2022/01/28 09:33:54;;;;;;;17.73;9.00;;;;;;;-144.43;100.00;64487.81;5033140;28;20024;-68
2022/01/28 09:36:22;;;;;;;21.45;10.13;;;;;;;-144.43;100.00;64487.81;5030119;28;20041;-67
2022/01/28 09:38:52;;;;;;;14.80;8.75;;;;;;;-144.43;100.00;64487.81;5024055;28;20021;-66
2022/01/28 09:41:18;;;;;;;16.48;9.10;;;;;;;-144.43;100.00;64487.81;5025766;28;20034;-67
2022/01/28 09:43:45;;;;;;;14.25;8.23;;;;;;;-144.43;100.00;64487.81;5010068;28;20032;-67
2022/01/28 09:46:11;;;;;;;13.70;8.30;;;;;;;-144.43;100.00;64487.81;5012213;28;20014;-67
2022/01/28 09:48:38;;;;;;;16.70;8.27;;;;;;;-144.43;100.00;64487.81;5023982;28;20035;-66
2022/01/28 09:51:03;;;;;;;14.70;8.70;;;;;;;-144.43;100.00;64487.81;5013441;28;20393;-67
2022/01/28 09:53:29;;;;;;;14.25;8.68;;;;;;;-144.43;100.00;64487.81;5012117;28;20033;-67
2022/01/28 09:55:55;;;;;;;16.75;8.70;;;;;;;-144.43;100.00;64487.81;5024623;28;20030;-68
2022/01/28 09:58:21;;;;;;;12.68;7.57;;;;;;;-144.43;100.00;64487.81;5041277;28;20044;-67
2022/01/28 10:00:47;;;;;;;12.00;7.80;;;;;;;-144.43;100.00;64487.81;5022495;28;20045;-68
2022/01/28 10:03:14;;;;;;;13.88;8.25;;;;;;;-144.43;100.00;64487.81;5062312;28;20017;-67
2022/01/28 10:05:40;;;;;;;12.95;7.80;;;;;;;-144.43;100.00;64487.81;5064234;28;20028;-67
2022/01/28 10:08:18;;;;;;;15.45;8.88;;;;;;;-144.43;100.00;64487.81;5034048;28;20027;-68
2022/01/28 10:11:05;;;;;;;13.70;8.73;;;;;;;-144.43;100.00;64487.81;5068142;28;20027;-68
2022/01/28 10:16:08;;;;;;;13.65;8.63;;;;;;;-144.43;100.00;64487.81;5067579;28;20029;-67
2022/01/28 10:18:54;;;;;;;15.20;8.95;;;;;;;-144.43;100.00;64487.81;5051312;28;20078;-67
2022/01/28 10:21:38;;;;;;;15.65;8.95;;;;;;;-144.43;100.00;64487.81;5014719;28;20070;-68
2022/01/28 10:24:08;;;;;;;16.65;9.10;;;;;;;-144.43;100.00;64487.81;5056907;28;20028;-68
2022/01/28 10:26:38;;;;;;;16.05;8.85;;;;;;;-144.43;100.00;64487.81;5057880;28;20032;-68
2022/01/28 10:29:08;;;;;;;13.82;8.07;;;;;;;-144.43;100.00;64487.81;5032555;28;20021;-68
2022/01/28 10:31:50;;;;;;;12.73;8.90;;;;;;;-144.43;100.00;64487.81;5033807;28;20479;-68
2022/01/28 10:34:32;;;;;;;13.15;8.52;;;;;;;-144.43;100.00;64487.81;5033684;28;20129;-68
2022/01/28 10:37:16;;;;;;;11.75;7.70;;;;;;;-144.43;100.00;64487.81;5044991;28;20020;-68
2022/01/28 10:39:57;;;;;;;12.85;7.10;;;;;;;-144.43;100.00;64487.81;5058580;28;20046;-68
2022/01/28 10:42:25;;;;;;;12.43;7.50;;;;;;;-144.43;100.00;64487.81;5037863;28;20361;-68
2022/01/28 10:45:00;;;;;;;15.95;9.15;;;;;;;-144.43;100.00;64487.81;5052423;28;20423;-68
2022/01/28 10:47:35;;;;;;;14.38;8.40;;;;;;;-144.43;100.00;64487.81;5052087;28;20537;-67
2022/01/28 10:50:13;;;;;;;13.60;8.70;;;;;;;-144.43;100.00;64487.81;5060151;28;20078;-67
2022/01/28 10:52:42;;;;;;;13.15;7.85;;;;;;;-144.43;100.00;64487.81;5056334;28;20111;-67
2022/01/28 10:55:16;;;;;;;12.68;7.65;;;;;;;-144.43;100.00;64487.81;5036074;28;20022;-68
2022/01/28 10:57:54;;;;;;;13.70;7.80;;;;;;;-144.43;100.00;64487.81;5047643;28;20029;-68
2022/01/28 11:00:19;;;;;;;13.68;8.23;;;;;;;-144.43;100.00;64487.81;5032067;28;20055;-67
2022/01/28 11:02:45;;;;;;;12.35;7.72;;;;;;;-144.43;100.00;64487.81;5058527;28;20029;-67
2022/01/28 11:05:11;;;;;;;12.23;7.15;;;;;;;-144.43;100.00;64487.81;5056660;28;20040;-67
2022/01/28 11:07:38;;;;;;;11.43;6.78;;;;;;;-144.43;100.00;64487.81;5035531;28;20502;-67
2022/01/28 11:10:04;;;;;;;12.13;8.32;;;;;;;-144.43;100.00;64487.81;5051823;28;20104;-67
2022/01/28 11:12:29;;;;;;;12.57;7.28;;;;;;;-144.43;100.00;64487.81;5053850;28;20155;-67
2022/01/28 11:14:55;;;;;;;10.73;7.15;;;;;;;-144.43;100.00;64487.81;5051334;28;20124;-67
2022/01/28 11:17:20;;;;;;;12.98;7.32;;;;;;;-144.43;100.00;64487.81;5051800;28;20021;-68
2022/01/28 11:19:48;;;;;;;13.05;6.97;;;;;;;-144.43;100.00;64487.81;5065149;28;20108;-67
2022/01/28 11:22:28;;;;;;;11.98;6.57;;;;;;;-144.43;100.00;64487.81;5054414;28;20387;-68
2022/01/28 11:25:15;;;;;;;11.52;6.85;;;;;;;-144.43;100.00;64487.81;5072008;28;20596;-67
2022/01/28 11:27:40;;;;;;;12.57;6.78;;;;;;;-144.43;100.00;64487.81;5072072;28;20028;-68
2022/01/28 11:30:25;;;;;;;12.77;6.75;;;;;;;-144.43;100.00;64487.81;5054557;28;20054;-68
2022/01/28 11:33:11;;;;;;;8.98;5.75;;;;;;;-144.43;100.00;64487.81;5071815;28;20391;-67
2022/01/28 11:35:40;;;;;;;11.25;6.40;;;;;;;-144.43;100.00;64487.81;5073104;28;20035;-68
2022/01/28 11:38:24;;;;;;;10.65;6.68;;;;;;;-144.43;100.00;64487.81;5057693;28;20031;-67
2022/01/28 11:40:55;;;;;;;9.65;6.35;;;;;;;-144.43;100.00;64487.81;5043875;28;20057;-67
2022/01/28 11:43:28;;;;;;;9.70;5.45;;;;;;;-144.43;100.00;64487.81;5034170;28;20103;-67
2022/01/28 11:46:15;;;;;;;8.85;5.40;;;;;;;-144.43;100.00;64487.81;5032829;28;20028;-66
2022/01/28 11:48:52;;;;;;;10.45;6.28;;;;;;;-144.43;100.00;64487.81;5051632;28;20087;-68
2022/01/28 11:51:44;;;;;;;9.48;5.78;;;;;;;-144.43;100.00;64487.81;5052386;28;20369;-67
2022/01/28 11:54:13;;;;;;;8.95;5.45;;;;;;;-144.43;100.00;64487.81;5032691;28;20469;-68
2022/01/28 11:56:57;;;;;;;9.48;5.72;;;;;;;-144.43;100.00;64487.81;5033985;28;20450;-68
2022/01/28 11:59:30;;;;;;;10.20;5.72;;;;;;;-144.43;100.00;64487.81;5050205;28;20001;-67
2022/01/28 12:01:55;;;;;;;8.95;5.97;;;;;;;-144.43;100.00;64487.81;5050222;28;20045;-67
2022/01/28 12:04:24;;;;;;;9.68;5.82;;;;;;;-144.43;100.00;64487.81;5065649;28;20115;-67
2022/01/28 12:07:10;;;;;;;9.95;5.85;;;;;;;-144.43;100.00;64487.81;5057577;28;20482;-66
2022/01/28 12:09:39;;;;;;;9.57;5.38;;;;;;;-144.43;100.00;64487.81;5058795;28;20029;-67
2022/01/28 12:12:12;;;;;;;8.55;5.65;;;;;;;-144.43;100.00;64487.81;5060333;28;20029;-67
2022/01/28 12:15:13;;;;;;;10.18;5.93;;;;;;;-144.43;100.00;64487.81;5059389;28;20029;-67
2022/01/28 12:17:41;;;;;;;8.63;5.35;;;;;;;-144.43;100.00;64487.81;5057271;28;20549;-67
2022/01/28 12:20:11;;;;;;;9.63;5.82;;;;;;;-144.43;100.00;64487.81;5029588;28;20033;-67
2022/01/28 12:22:59;;;;;;;7.70;5.35;;;;;;;-144.43;100.00;64487.81;5056036;28;20028;-67
2022/01/28 12:25:36;;;;;;;7.63;5.35;;;;;;;-144.43;100.00;64487.81;5049251;28;20108;-67
2022/01/28 12:28:26;;;;;;;9.32;5.65;;;;;;;-144.43;100.00;64487.81;5057852;28;20434;-67
2022/01/28 12:31:14;;;;;;;9.50;5.30;;;;;;;-144.43;100.00;64487.81;5056187;28;20036;-67
2022/01/28 12:33:47;;;;;;;10.93;5.22;;;;;;;-144.43;100.00;64487.81;5030307;28;20408;-67
2022/01/28 12:36:18;;;;;;;8.27;5.68;;;;;;;-144.43;100.00;64487.81;5047304;28;20029;-67
2022/01/28 12:39:07;;;;;;;7.85;4.50;;;;;;;-144.43;100.00;64487.81;5048116;28;20025;-68
2022/01/28 12:41:48;;;;;;;7.47;4.65;;;;;;;-144.43;100.00;64487.81;5050863;28;20108;-67
2022/01/28 12:44:15;;;;;;;8.35;4.80;;;;;;;-144.43;100.00;64487.81;5030517;28;20170;-67
2022/01/28 12:46:47;;;;;;;5.93;4.15;;;;;;;-144.43;100.00;64487.81;5022748;28;20512;-68
2022/01/28 12:49:16;;;;;;;9.15;5.50;;;;;;;-144.43;100.00;64487.81;5064608;28;20017;-68